sensor_id;sensor_type;location;lat;lon;timestamp;noise_LAeq;noise_LA_min;noise_LA_max;noise_LA01;noise_LA95
67310;Laerm;65444;51.438;5.982;2023-07-29T00:00:04;33.89;31.13;40.56;;
67310;Laerm;65444;51.438;5.982;2023-07-29T00:00:15;38.84;30.51;48.51;;
67310;Laerm;65444;51.438;5.982;2023-07-29T00:00:25;35.16;31.02;42.02;;
67310;Laerm;65444;51.438;5.982;2023-07-29T00:00:38;35.57;30.85;46.43;;
67310;Laerm;65444;51.438;5.982;2023-07-29T00:00:48;33.98;30.47;38.81;;
67310;Laerm;65444;51.438;5.982;2023-07-29T00:00:59;32.53;30.07;36.86;;
67310;Laerm;65444;51.438;5.982;2023-07-29T00:01:10;33.39;30.40;41.28;;
67310;Laerm;65444;51.438;5.982;2023-07-29T00:01:20;32.84;30.52;38.31;;
67310;Laerm;65444;51.438;5.982;2023-07-29T00:01:31;33.54;31.04;36.41;;
67310;Laerm;65444;51.438;5.982;2023-07-29T00:01:41;35.66;31.17;40.02;;
67310;Laerm;65444;51.438;5.982;2023-07-29T00:01:52;33.77;31.06;38.38;;
67310;Laerm;65444;51.438;5.982;2023-07-29T00:02:03;35.76;29.85;41.23;;
67310;Laerm;65444;51.438;5.982;2023-07-29T00:02:14;31.29;29.06;35.33;;
67310;Laerm;65444;51.438;5.982;2023-07-29T00:02:25;30.90;29.26;33.14;;
67310;Laerm;65444;51.438;5.982;2023-07-29T00:02:36;34.11;30.17;39.50;;
67310;Laerm;65444;51.438;5.982;2023-07-29T00:02:46;32.44;29.56;36.90;;
67310;Laerm;65444;51.438;5.982;2023-07-29T00:02:56;31.36;29.64;35.98;;
67310;Laerm;65444;51.438;5.982;2023-07-29T00:03:07;30.73;29.44;33.38;;
67310;Laerm;65444;51.438;5.982;2023-07-29T00:03:17;31.13;29.65;33.16;;
67310;Laerm;65444;51.438;5.982;2023-07-29T00:03:27;31.46;28.92;34.00;;
67310;Laerm;65444;51.438;5.982;2023-07-29T00:03:40;30.17;28.77;31.48;;
67310;Laerm;65444;51.438;5.982;2023-07-29T00:03:51;30.16;28.85;31.53;;
67310;Laerm;65444;51.438;5.982;2023-07-29T00:04:01;30.42;29.02;31.86;;
67310;Laerm;65444;51.438;5.982;2023-07-29T00:04:12;30.98;29.22;32.42;;
67310;Laerm;65444;51.438;5.982;2023-07-29T00:04:22;30.75;29.16;32.15;;
67310;Laerm;65444;51.438;5.982;2023-07-29T00:04:35;31.05;29.52;32.90;;
67310;Laerm;65444;51.438;5.982;2023-07-29T00:04:45;31.25;28.89;33.09;;
67310;Laerm;65444;51.438;5.982;2023-07-29T00:04:56;30.58;28.59;31.89;;
67310;Laerm;65444;51.438;5.982;2023-07-29T00:05:06;30.61;29.15;32.14;;
67310;Laerm;65444;51.438;5.982;2023-07-29T00:05:16;30.74;29.31;36.13;;
67310;Laerm;65444;51.438;5.982;2023-07-29T00:05:27;30.81;29.37;33.05;;
67310;Laerm;65444;51.438;5.982;2023-07-29T00:05:38;31.76;29.39;34.88;;
67310;Laerm;65444;51.438;5.982;2023-07-29T00:05:48;31.88;29.77;35.36;;
67310;Laerm;65444;51.438;5.982;2023-07-29T00:05:59;32.89;30.77;34.54;;
67310;Laerm;65444;51.438;5.982;2023-07-29T00:06:09;33.17;30.88;39.40;;
67310;Laerm;65444;51.438;5.982;2023-07-29T00:06:23;33.29;31.10;35.40;;
67310;Laerm;65444;51.438;5.982;2023-07-29T00:06:34;33.72;31.46;36.07;;
67310;Laerm;65444;51.438;5.982;2023-07-29T00:06:44;35.05;31.74;38.01;;
67310;Laerm;65444;51.438;5.982;2023-07-29T00:06:54;38.33;35.20;42.57;;
67310;Laerm;65444;51.438;5.982;2023-07-29T00:07:05;38.37;35.18;41.35;;
67310;Laerm;65444;51.438;5.982;2023-07-29T00:07:15;40.32;37.59;43.32;;
67310;Laerm;65444;51.438;5.982;2023-07-29T00:07:26;42.80;37.23;45.86;;
67310;Laerm;65444;51.438;5.982;2023-07-29T00:07:36;47.55;43.77;54.67;;
67310;Laerm;65444;51.438;5.982;2023-07-29T00:07:47;48.64;44.11;53.66;;
67310;Laerm;65444;51.438;5.982;2023-07-29T00:07:57;43.38;39.45;46.23;;
67310;Laerm;65444;51.438;5.982;2023-07-29T00:08:11;40.11;38.05;43.48;;
67310;Laerm;65444;51.438;5.982;2023-07-29T00:08:21;35.33;30.39;40.35;;
67310;Laerm;65444;51.438;5.982;2023-07-29T00:08:31;31.25;29.53;37.10;;
67310;Laerm;65444;51.438;5.982;2023-07-29T00:08:42;32.76;28.97;46.67;;
67310;Laerm;65444;51.438;5.982;2023-07-29T00:08:52;30.52;28.96;32.19;;
67310;Laerm;65444;51.438;5.982;2023-07-29T00:09:02;30.54;28.88;32.82;;
67310;Laerm;65444;51.438;5.982;2023-07-29T00:09:13;30.22;28.75;34.69;;
67310;Laerm;65444;51.438;5.982;2023-07-29T00:09:23;33.77;29.05;50.45;;
67310;Laerm;65444;51.438;5.982;2023-07-29T00:09:34;30.77;29.26;34.07;;
67310;Laerm;65444;51.438;5.982;2023-07-29T00:09:44;30.96;29.32;33.61;;
67310;Laerm;65444;51.438;5.982;2023-07-29T00:09:54;30.51;28.97;34.99;;
67310;Laerm;65444;51.438;5.982;2023-07-29T00:10:05;30.31;28.89;31.80;;
67310;Laerm;65444;51.438;5.982;2023-07-29T00:10:15;30.27;28.71;32.20;;
67310;Laerm;65444;51.438;5.982;2023-07-29T00:10:26;30.56;28.57;36.16;;
67310;Laerm;65444;51.438;5.982;2023-07-29T00:10:37;30.60;28.95;32.43;;
67310;Laerm;65444;51.438;5.982;2023-07-29T00:10:47;30.97;29.12;33.17;;
67310;Laerm;65444;51.438;5.982;2023-07-29T00:10:58;30.64;29.15;32.19;;
67310;Laerm;65444;51.438;5.982;2023-07-29T00:11:08;30.78;29.16;33.51;;
67310;Laerm;65444;51.438;5.982;2023-07-29T00:11:19;31.29;28.27;34.21;;
67310;Laerm;65444;51.438;5.982;2023-07-29T00:11:29;32.32;29.55;36.82;;
67310;Laerm;65444;51.438;5.982;2023-07-29T00:11:40;32.14;29.64;36.61;;
67310;Laerm;65444;51.438;5.982;2023-07-29T00:11:51;32.35;29.84;34.97;;
67310;Laerm;65444;51.438;5.982;2023-07-29T00:12:01;32.35;29.70;36.28;;
67310;Laerm;65444;51.438;5.982;2023-07-29T00:12:11;31.56;29.68;33.84;;
67310;Laerm;65444;51.438;5.982;2023-07-29T00:12:22;31.45;29.50;33.47;;
67310;Laerm;65444;51.438;5.982;2023-07-29T00:12:32;31.00;29.21;32.54;;
67310;Laerm;65444;51.438;5.982;2023-07-29T00:12:43;30.90;29.55;32.69;;
67310;Laerm;65444;51.438;5.982;2023-07-29T00:12:53;31.24;28.91;34.44;;
67310;Laerm;65444;51.438;5.982;2023-07-29T00:13:04;31.83;29.52;33.86;;
67310;Laerm;65444;51.438;5.982;2023-07-29T00:13:14;35.13;32.19;41.66;;
67310;Laerm;65444;51.438;5.982;2023-07-29T00:13:28;35.94;30.72;42.07;;
67310;Laerm;65444;51.438;5.982;2023-07-29T00:13:38;35.31;29.99;43.83;;
67310;Laerm;65444;51.438;5.982;2023-07-29T00:13:49;34.31;32.29;37.14;;
67310;Laerm;65444;51.438;5.982;2023-07-29T00:14:01;33.36;30.42;40.31;;
67310;Laerm;65444;51.438;5.982;2023-07-29T00:14:11;33.02;30.29;37.03;;
67310;Laerm;65444;51.438;5.982;2023-07-29T00:14:22;33.67;30.93;37.01;;
67310;Laerm;65444;51.438;5.982;2023-07-29T00:14:32;38.10;31.52;47.34;;
67310;Laerm;65444;51.438;5.982;2023-07-29T00:14:42;33.39;30.67;36.85;;
67310;Laerm;65444;51.438;5.982;2023-07-29T00:14:53;30.83;28.93;34.87;;
67310;Laerm;65444;51.438;5.982;2023-07-29T00:15:06;30.88;28.83;33.79;;
67310;Laerm;65444;51.438;5.982;2023-07-29T00:15:16;30.72;29.12;32.81;;
67310;Laerm;65444;51.438;5.982;2023-07-29T00:15:26;30.52;28.71;34.86;;
67310;Laerm;65444;51.438;5.982;2023-07-29T00:15:37;30.91;29.10;36.35;;
67310;Laerm;65444;51.438;5.982;2023-07-29T00:15:47;30.30;29.04;32.54;;
67310;Laerm;65444;51.438;5.982;2023-07-29T00:15:58;30.68;29.23;33.62;;
67310;Laerm;65444;51.438;5.982;2023-07-29T00:16:09;30.70;28.73;32.94;;
67310;Laerm;65444;51.438;5.982;2023-07-29T00:16:19;30.50;28.93;32.48;;
67310;Laerm;65444;51.438;5.982;2023-07-29T00:16:32;30.79;29.24;35.02;;
67310;Laerm;65444;51.438;5.982;2023-07-29T00:16:42;31.37;29.50;33.94;;
67310;Laerm;65444;51.438;5.982;2023-07-29T00:16:53;31.62;29.55;35.11;;
67310;Laerm;65444;51.438;5.982;2023-07-29T00:17:03;30.76;29.44;32.38;;
67310;Laerm;65444;51.438;5.982;2023-07-29T00:17:14;30.69;29.12;36.56;;
67310;Laerm;65444;51.438;5.982;2023-07-29T00:17:24;30.40;28.84;32.27;;
67310;Laerm;65444;51.438;5.982;2023-07-29T00:17:35;30.55;28.51;41.55;;
67310;Laerm;65444;51.438;5.982;2023-07-29T00:17:45;30.22;28.90;31.81;;
67310;Laerm;65444;51.438;5.982;2023-07-29T00:17:56;30.25;28.67;32.27;;
67310;Laerm;65444;51.438;5.982;2023-07-29T00:18:06;30.72;29.24;38.29;;
67310;Laerm;65444;51.438;5.982;2023-07-29T00:18:16;33.54;29.98;38.78;;
67310;Laerm;65444;51.438;5.982;2023-07-29T00:18:27;31.57;29.63;33.83;;
67310;Laerm;65444;51.438;5.982;2023-07-29T00:18:37;30.76;28.71;32.91;;
67310;Laerm;65444;51.438;5.982;2023-07-29T00:18:49;30.30;28.94;32.48;;
67310;Laerm;65444;51.438;5.982;2023-07-29T00:18:59;30.63;28.94;32.49;;
67310;Laerm;65444;51.438;5.982;2023-07-29T00:19:10;30.95;29.40;33.06;;
67310;Laerm;65444;51.438;5.982;2023-07-29T00:19:20;30.99;29.13;35.90;;
67310;Laerm;65444;51.438;5.982;2023-07-29T00:19:33;30.84;29.02;34.82;;
67310;Laerm;65444;51.438;5.982;2023-07-29T00:19:43;31.79;29.96;40.91;;
67310;Laerm;65444;51.438;5.982;2023-07-29T00:19:54;32.15;30.25;34.90;;
67310;Laerm;65444;51.438;5.982;2023-07-29T00:20:05;31.72;29.84;33.73;;
67310;Laerm;65444;51.438;5.982;2023-07-29T00:20:16;32.65;30.87;35.32;;
67310;Laerm;65444;51.438;5.982;2023-07-29T00:20:26;34.14;31.70;37.74;;
67310;Laerm;65444;51.438;5.982;2023-07-29T00:20:37;36.39;33.23;41.93;;
67310;Laerm;65444;51.438;5.982;2023-07-29T00:20:47;36.85;33.69;40.88;;
67310;Laerm;65444;51.438;5.982;2023-07-29T00:20:57;37.87;35.38;41.00;;
67310;Laerm;65444;51.438;5.982;2023-07-29T00:21:08;40.82;36.89;44.10;;
67310;Laerm;65444;51.438;5.982;2023-07-29T00:21:18;41.23;38.71;43.85;;
67310;Laerm;65444;51.438;5.982;2023-07-29T00:21:29;38.84;35.25;42.64;;
67310;Laerm;65444;51.438;5.982;2023-07-29T00:21:39;35.82;33.52;38.79;;
67310;Laerm;65444;51.438;5.982;2023-07-29T00:21:51;33.10;30.86;35.82;;
67310;Laerm;65444;51.438;5.982;2023-07-29T00:22:01;32.30;30.56;34.17;;
67310;Laerm;65444;51.438;5.982;2023-07-29T00:22:11;31.89;29.97;34.05;;
67310;Laerm;65444;51.438;5.982;2023-07-29T00:22:22;32.28;30.33;34.51;;
67310;Laerm;65444;51.438;5.982;2023-07-29T00:22:32;32.39;30.29;34.90;;
67310;Laerm;65444;51.438;5.982;2023-07-29T00:22:43;32.29;30.35;34.78;;
67310;Laerm;65444;51.438;5.982;2023-07-29T00:22:53;31.76;29.39;35.49;;
67310;Laerm;65444;51.438;5.982;2023-07-29T00:23:04;31.20;29.71;33.16;;
67310;Laerm;65444;51.438;5.982;2023-07-29T00:23:15;31.46;29.29;34.91;;
67310;Laerm;65444;51.438;5.982;2023-07-29T00:23:25;31.55;29.61;34.51;;
67310;Laerm;65444;51.438;5.982;2023-07-29T00:23:35;31.70;30.07;33.80;;
67310;Laerm;65444;51.438;5.982;2023-07-29T00:23:46;30.95;29.20;33.07;;
67310;Laerm;65444;51.438;5.982;2023-07-29T00:23:56;30.98;29.25;32.59;;
67310;Laerm;65444;51.438;5.982;2023-07-29T00:24:07;31.44;29.56;33.53;;
67310;Laerm;65444;51.438;5.982;2023-07-29T00:24:17;32.69;30.80;35.48;;
67310;Laerm;65444;51.438;5.982;2023-07-29T00:24:28;32.02;29.98;34.23;;
67310;Laerm;65444;51.438;5.982;2023-07-29T00:24:39;31.62;30.04;34.93;;
67310;Laerm;65444;51.438;5.982;2023-07-29T00:24:52;32.92;30.49;36.39;;
67310;Laerm;65444;51.438;5.982;2023-07-29T00:25:07;33.45;30.58;44.55;;
67310;Laerm;65444;51.438;5.982;2023-07-29T00:25:17;33.05;30.11;38.69;;
67310;Laerm;65444;51.438;5.982;2023-07-29T00:25:28;32.25;30.42;36.62;;
67310;Laerm;65444;51.438;5.982;2023-07-29T00:25:38;33.24;30.81;39.38;;
67310;Laerm;65444;51.438;5.982;2023-07-29T00:25:48;40.26;33.49;44.45;;
67310;Laerm;65444;51.438;5.982;2023-07-29T00:25:59;40.13;38.02;42.90;;
67310;Laerm;65444;51.438;5.982;2023-07-29T00:26:10;44.84;39.51;47.74;;
67310;Laerm;65444;51.438;5.982;2023-07-29T00:26:20;45.45;42.95;48.03;;
67310;Laerm;65444;51.438;5.982;2023-07-29T00:26:31;46.43;43.62;50.13;;
67310;Laerm;65444;51.438;5.982;2023-07-29T00:26:42;44.61;40.60;48.41;;
67310;Laerm;65444;51.438;5.982;2023-07-29T00:26:52;42.04;39.67;44.65;;
67310;Laerm;65444;51.438;5.982;2023-07-29T00:27:03;40.15;37.92;42.87;;
67310;Laerm;65444;51.438;5.982;2023-07-29T00:27:14;41.28;38.83;44.36;;
67310;Laerm;65444;51.438;5.982;2023-07-29T00:27:27;43.57;39.75;47.77;;
67310;Laerm;65444;51.438;5.982;2023-07-29T00:27:37;42.20;38.66;45.71;;
67310;Laerm;65444;51.438;5.982;2023-07-29T00:27:47;39.97;34.49;45.90;;
67310;Laerm;65444;51.438;5.982;2023-07-29T00:27:58;36.43;33.32;41.14;;
67310;Laerm;65444;51.438;5.982;2023-07-29T00:28:08;35.76;32.72;38.56;;
67310;Laerm;65444;51.438;5.982;2023-07-29T00:28:19;35.82;32.54;39.60;;
67310;Laerm;65444;51.438;5.982;2023-07-29T00:28:29;34.31;31.89;37.97;;
67310;Laerm;65444;51.438;5.982;2023-07-29T00:28:40;33.30;31.18;35.19;;
67310;Laerm;65444;51.438;5.982;2023-07-29T00:28:50;32.76;30.04;36.25;;
67310;Laerm;65444;51.438;5.982;2023-07-29T00:29:00;32.12;29.91;33.68;;
67310;Laerm;65444;51.438;5.982;2023-07-29T00:29:11;32.37;30.50;34.57;;
67310;Laerm;65444;51.438;5.982;2023-07-29T00:29:21;31.92;29.81;36.53;;
67310;Laerm;65444;51.438;5.982;2023-07-29T00:29:31;31.87;29.98;34.27;;
67310;Laerm;65444;51.438;5.982;2023-07-29T00:29:42;31.58;29.80;32.98;;
67310;Laerm;65444;51.438;5.982;2023-07-29T00:29:52;32.23;30.17;35.17;;
67310;Laerm;65444;51.438;5.982;2023-07-29T00:30:03;32.06;30.18;34.43;;
67310;Laerm;65444;51.438;5.982;2023-07-29T00:30:13;32.19;30.38;34.36;;
67310;Laerm;65444;51.438;5.982;2023-07-29T00:30:23;35.78;31.90;38.48;;
67310;Laerm;65444;51.438;5.982;2023-07-29T00:30:34;36.91;34.41;39.04;;
67310;Laerm;65444;51.438;5.982;2023-07-29T00:30:44;39.10;36.82;41.22;;
67310;Laerm;65444;51.438;5.982;2023-07-29T00:30:58;40.22;37.71;42.66;;
67310;Laerm;65444;51.438;5.982;2023-07-29T00:31:09;41.68;38.08;45.22;;
67310;Laerm;65444;51.438;5.982;2023-07-29T00:31:19;37.82;35.36;40.21;;
67310;Laerm;65444;51.438;5.982;2023-07-29T00:31:29;37.61;34.90;40.38;;
67310;Laerm;65444;51.438;5.982;2023-07-29T00:31:40;36.53;34.46;38.75;;
67310;Laerm;65444;51.438;5.982;2023-07-29T00:31:50;38.10;34.84;41.58;;
67310;Laerm;65444;51.438;5.982;2023-07-29T00:32:00;39.68;36.75;42.75;;
67310;Laerm;65444;51.438;5.982;2023-07-29T00:32:11;39.10;33.62;43.91;;
67310;Laerm;65444;51.438;5.982;2023-07-29T00:32:21;34.74;32.41;37.63;;
67310;Laerm;65444;51.438;5.982;2023-07-29T00:32:31;35.46;32.83;38.39;;
67310;Laerm;65444;51.438;5.982;2023-07-29T00:32:41;33.63;31.52;39.79;;
67310;Laerm;65444;51.438;5.982;2023-07-29T00:32:52;34.08;31.40;47.63;;
67310;Laerm;65444;51.438;5.982;2023-07-29T00:33:02;33.10;30.41;35.89;;
67310;Laerm;65444;51.438;5.982;2023-07-29T00:33:13;32.73;30.79;42.62;;
67310;Laerm;65444;51.438;5.982;2023-07-29T00:33:23;32.04;30.17;40.46;;
67310;Laerm;65444;51.438;5.982;2023-07-29T00:33:34;31.41;29.59;32.99;;
67310;Laerm;65444;51.438;5.982;2023-07-29T00:33:44;31.18;29.61;33.58;;
67310;Laerm;65444;51.438;5.982;2023-07-29T00:33:55;31.23;29.57;32.76;;
67310;Laerm;65444;51.438;5.982;2023-07-29T00:34:05;31.70;29.84;33.39;;
67310;Laerm;65444;51.438;5.982;2023-07-29T00:34:15;31.64;29.89;33.41;;
67310;Laerm;65444;51.438;5.982;2023-07-29T00:34:29;32.29;30.39;34.17;;
67310;Laerm;65444;51.438;5.982;2023-07-29T00:34:40;32.50;30.72;34.64;;
67310;Laerm;65444;51.438;5.982;2023-07-29T00:34:51;32.11;30.29;35.25;;
67310;Laerm;65444;51.438;5.982;2023-07-29T00:35:02;32.51;30.22;37.33;;
67310;Laerm;65444;51.438;5.982;2023-07-29T00:35:12;32.57;30.22;38.04;;
67310;Laerm;65444;51.438;5.982;2023-07-29T00:35:22;32.27;29.77;35.36;;
67310;Laerm;65444;51.438;5.982;2023-07-29T00:35:33;32.29;29.75;36.77;;
67310;Laerm;65444;51.438;5.982;2023-07-29T00:35:44;31.79;29.59;35.41;;
67310;Laerm;65444;51.438;5.982;2023-07-29T00:35:54;31.79;29.11;38.79;;
67310;Laerm;65444;51.438;5.982;2023-07-29T00:36:05;31.69;29.94;33.93;;
67310;Laerm;65444;51.438;5.982;2023-07-29T00:36:15;32.15;29.45;34.41;;
67310;Laerm;65444;51.438;5.982;2023-07-29T00:36:26;33.03;30.90;35.33;;
67310;Laerm;65444;51.438;5.982;2023-07-29T00:36:36;36.03;32.05;40.39;;
67310;Laerm;65444;51.438;5.982;2023-07-29T00:36:47;31.60;29.18;34.53;;
67310;Laerm;65444;51.438;5.982;2023-07-29T00:36:57;30.84;29.15;33.36;;
67310;Laerm;65444;51.438;5.982;2023-07-29T00:37:08;30.94;29.15;32.83;;
67310;Laerm;65444;51.438;5.982;2023-07-29T00:37:18;30.34;28.65;32.04;;
67310;Laerm;65444;51.438;5.982;2023-07-29T00:37:29;30.71;28.73;36.68;;
67310;Laerm;65444;51.438;5.982;2023-07-29T00:37:40;30.71;29.05;33.17;;
67310;Laerm;65444;51.438;5.982;2023-07-29T00:37:50;30.74;28.86;32.76;;
67310;Laerm;65444;51.438;5.982;2023-07-29T00:38:00;30.52;28.72;32.83;;
67310;Laerm;65444;51.438;5.982;2023-07-29T00:38:11;29.94;28.27;31.60;;
67310;Laerm;65444;51.438;5.982;2023-07-29T00:38:21;30.02;28.87;31.45;;
67310;Laerm;65444;51.438;5.982;2023-07-29T00:38:34;30.05;28.65;31.46;;
67310;Laerm;65444;51.438;5.982;2023-07-29T00:38:44;30.49;28.34;32.10;;
67310;Laerm;65444;51.438;5.982;2023-07-29T00:38:55;31.24;29.06;33.05;;
67310;Laerm;65444;51.438;5.982;2023-07-29T00:39:07;31.41;29.77;33.87;;
67310;Laerm;65444;51.438;5.982;2023-07-29T00:39:17;31.97;30.41;33.73;;
67310;Laerm;65444;51.438;5.982;2023-07-29T00:39:29;33.55;30.95;37.03;;
67310;Laerm;65444;51.438;5.982;2023-07-29T00:39:39;39.26;34.77;43.52;;
67310;Laerm;65444;51.438;5.982;2023-07-29T00:39:50;41.07;38.40;44.12;;
67310;Laerm;65444;51.438;5.982;2023-07-29T00:40:00;39.73;37.04;43.18;;
67310;Laerm;65444;51.438;5.982;2023-07-29T00:40:20;41.40;39.16;44.68;;
67310;Laerm;65444;51.438;5.982;2023-07-29T00:40:31;41.50;37.89;44.34;;
67310;Laerm;65444;51.438;5.982;2023-07-29T00:40:45;39.14;36.19;42.72;;
67310;Laerm;65444;51.438;5.982;2023-07-29T00:40:56;39.74;35.10;43.84;;
67310;Laerm;65444;51.438;5.982;2023-07-29T00:41:07;37.53;33.80;42.76;;
67310;Laerm;65444;51.438;5.982;2023-07-29T00:41:18;36.66;34.02;39.82;;
67310;Laerm;65444;51.438;5.982;2023-07-29T00:41:28;36.03;32.50;39.06;;
67310;Laerm;65444;51.438;5.982;2023-07-29T00:41:39;34.86;31.69;37.73;;
67310;Laerm;65444;51.438;5.982;2023-07-29T00:41:49;35.53;32.52;38.39;;
67310;Laerm;65444;51.438;5.982;2023-07-29T00:42:00;34.36;30.97;41.72;;
67310;Laerm;65444;51.438;5.982;2023-07-29T00:42:10;32.05;29.81;34.16;;
67310;Laerm;65444;51.438;5.982;2023-07-29T00:42:20;31.70;29.62;36.39;;
67310;Laerm;65444;51.438;5.982;2023-07-29T00:42:30;31.80;29.91;33.54;;
67310;Laerm;65444;51.438;5.982;2023-07-29T00:42:41;31.44;29.42;33.67;;
67310;Laerm;65444;51.438;5.982;2023-07-29T00:42:52;31.40;29.62;33.69;;
67310;Laerm;65444;51.438;5.982;2023-07-29T00:43:02;31.08;29.26;34.79;;
67310;Laerm;65444;51.438;5.982;2023-07-29T00:43:13;31.35;29.81;36.23;;
67310;Laerm;65444;51.438;5.982;2023-07-29T00:43:23;31.40;29.89;34.17;;
67310;Laerm;65444;51.438;5.982;2023-07-29T00:43:36;31.25;29.62;32.93;;
67310;Laerm;65444;51.438;5.982;2023-07-29T00:43:47;31.07;29.38;34.21;;
67310;Laerm;65444;51.438;5.982;2023-07-29T00:43:57;30.62;28.81;32.01;;
67310;Laerm;65444;51.438;5.982;2023-07-29T00:44:07;30.76;29.12;32.62;;
67310;Laerm;65444;51.438;5.982;2023-07-29T00:44:18;31.04;29.37;33.83;;
67310;Laerm;65444;51.438;5.982;2023-07-29T00:44:31;30.69;28.95;33.95;;
67310;Laerm;65444;51.438;5.982;2023-07-29T00:44:41;30.37;28.71;32.85;;
67310;Laerm;65444;51.438;5.982;2023-07-29T00:44:52;30.38;28.89;32.12;;
67310;Laerm;65444;51.438;5.982;2023-07-29T00:45:02;30.56;29.11;32.13;;
67310;Laerm;65444;51.438;5.982;2023-07-29T00:45:13;30.72;28.88;32.29;;
67310;Laerm;65444;51.438;5.982;2023-07-29T00:45:23;30.46;28.90;32.49;;
67310;Laerm;65444;51.438;5.982;2023-07-29T00:45:35;30.10;28.55;31.48;;
67310;Laerm;65444;51.438;5.982;2023-07-29T00:45:46;30.05;28.55;31.76;;
67310;Laerm;65444;51.438;5.982;2023-07-29T00:45:56;30.17;28.91;32.19;;
67310;Laerm;65444;51.438;5.982;2023-07-29T00:46:08;30.42;28.92;34.73;;
67310;Laerm;65444;51.438;5.982;2023-07-29T00:46:22;30.14;28.49;33.73;;
67310;Laerm;65444;51.438;5.982;2023-07-29T00:46:34;30.23;28.64;32.19;;
67310;Laerm;65444;51.438;5.982;2023-07-29T00:46:45;29.73;28.39;31.51;;
67310;Laerm;65444;51.438;5.982;2023-07-29T00:46:55;29.94;28.38;31.80;;
67310;Laerm;65444;51.438;5.982;2023-07-29T00:47:06;30.18;28.61;33.07;;
67310;Laerm;65444;51.438;5.982;2023-07-29T00:47:17;29.78;28.32;32.34;;
67310;Laerm;65444;51.438;5.982;2023-07-29T00:47:27;29.91;28.46;31.62;;
67310;Laerm;65444;51.438;5.982;2023-07-29T00:47:38;30.03;28.46;31.97;;
67310;Laerm;65444;51.438;5.982;2023-07-29T00:47:49;30.03;28.25;41.11;;
67310;Laerm;65444;51.438;5.982;2023-07-29T00:48:00;29.76;28.61;31.73;;
67310;Laerm;65444;51.438;5.982;2023-07-29T00:48:13;29.96;28.66;31.27;;
67310;Laerm;65444;51.438;5.982;2023-07-29T00:48:24;30.33;28.82;31.91;;
67310;Laerm;65444;51.438;5.982;2023-07-29T00:48:35;30.24;28.53;33.30;;
67310;Laerm;65444;51.438;5.982;2023-07-29T00:48:45;29.93;27.83;32.98;;
67310;Laerm;65444;51.438;5.982;2023-07-29T00:48:56;29.92;28.55;31.89;;
67310;Laerm;65444;51.438;5.982;2023-07-29T00:49:06;30.13;28.54;32.38;;
67310;Laerm;65444;51.438;5.982;2023-07-29T00:49:16;30.83;28.88;32.90;;
67310;Laerm;65444;51.438;5.982;2023-07-29T00:49:27;30.33;28.99;32.51;;
67310;Laerm;65444;51.438;5.982;2023-07-29T00:49:37;30.66;29.05;32.52;;
67310;Laerm;65444;51.438;5.982;2023-07-29T00:49:47;30.60;28.99;32.53;;
67310;Laerm;65444;51.438;5.982;2023-07-29T00:49:58;31.42;29.31;34.20;;
67310;Laerm;65444;51.438;5.982;2023-07-29T00:50:09;35.13;30.48;39.69;;
67310;Laerm;65444;51.438;5.982;2023-07-29T00:50:21;31.54;29.14;35.47;;
67310;Laerm;65444;51.438;5.982;2023-07-29T00:50:31;31.12;29.31;33.30;;
67310;Laerm;65444;51.438;5.982;2023-07-29T00:50:42;30.45;28.91;32.34;;
67310;Laerm;65444;51.438;5.982;2023-07-29T00:50:53;30.24;28.63;32.05;;
67310;Laerm;65444;51.438;5.982;2023-07-29T00:51:04;30.03;28.17;31.71;;
67310;Laerm;65444;51.438;5.982;2023-07-29T00:51:14;30.15;28.42;32.17;;
67310;Laerm;65444;51.438;5.982;2023-07-29T00:51:25;30.87;29.04;33.91;;
67310;Laerm;65444;51.438;5.982;2023-07-29T00:51:35;31.01;28.68;33.27;;
67310;Laerm;65444;51.438;5.982;2023-07-29T00:51:45;30.17;28.67;32.12;;
67310;Laerm;65444;51.438;5.982;2023-07-29T00:51:58;30.60;28.92;32.39;;
67310;Laerm;65444;51.438;5.982;2023-07-29T00:52:12;30.91;29.00;33.99;;
67310;Laerm;65444;51.438;5.982;2023-07-29T00:52:22;31.08;29.14;36.34;;
67310;Laerm;65444;51.438;5.982;2023-07-29T00:52:33;32.82;29.48;38.73;;
67310;Laerm;65444;51.438;5.982;2023-07-29T00:52:43;32.70;29.30;37.60;;
67310;Laerm;65444;51.438;5.982;2023-07-29T00:52:54;33.37;30.11;39.60;;
67310;Laerm;65444;51.438;5.982;2023-07-29T00:53:05;32.56;29.69;36.94;;
67310;Laerm;65444;51.438;5.982;2023-07-29T00:53:15;32.55;29.91;37.02;;
67310;Laerm;65444;51.438;5.982;2023-07-29T00:53:25;34.12;29.37;50.88;;
67310;Laerm;65444;51.438;5.982;2023-07-29T00:53:36;32.95;29.40;37.71;;
67310;Laerm;65444;51.438;5.982;2023-07-29T00:53:46;31.91;29.62;35.80;;
67310;Laerm;65444;51.438;5.982;2023-07-29T00:53:57;32.76;28.89;38.91;;
67310;Laerm;65444;51.438;5.982;2023-07-29T00:54:07;31.89;29.08;36.60;;
67310;Laerm;65444;51.438;5.982;2023-07-29T00:54:18;31.74;29.20;36.98;;
67310;Laerm;65444;51.438;5.982;2023-07-29T00:54:28;31.13;27.93;36.60;;
67310;Laerm;65444;51.438;5.982;2023-07-29T00:54:39;31.54;28.44;39.24;;
67310;Laerm;65444;51.438;5.982;2023-07-29T00:54:49;31.28;29.02;36.79;;
67310;Laerm;65444;51.438;5.982;2023-07-29T00:54:59;30.49;28.56;35.07;;
67310;Laerm;65444;51.438;5.982;2023-07-29T00:55:10;31.69;29.00;37.43;;
67310;Laerm;65444;51.438;5.982;2023-07-29T00:55:21;31.88;28.87;39.46;;
67310;Laerm;65444;51.438;5.982;2023-07-29T00:55:31;30.79;28.51;35.37;;
67310;Laerm;65444;51.438;5.982;2023-07-29T00:55:42;30.44;28.60;34.25;;
67310;Laerm;65444;51.438;5.982;2023-07-29T00:55:53;31.16;28.62;36.57;;
67310;Laerm;65444;51.438;5.982;2023-07-29T00:56:03;30.12;28.50;35.45;;
67310;Laerm;65444;51.438;5.982;2023-07-29T00:56:14;30.41;28.88;33.40;;
67310;Laerm;65444;51.438;5.982;2023-07-29T00:56:25;30.42;28.62;32.78;;
67310;Laerm;65444;51.438;5.982;2023-07-29T00:56:35;30.71;28.94;33.00;;
67310;Laerm;65444;51.438;5.982;2023-07-29T00:56:46;31.34;29.55;37.76;;
67310;Laerm;65444;51.438;5.982;2023-07-29T00:56:56;31.77;29.81;33.60;;
67310;Laerm;65444;51.438;5.982;2023-07-29T00:57:08;31.19;29.47;35.59;;
67310;Laerm;65444;51.438;5.982;2023-07-29T00:57:24;30.31;28.77;32.20;;
67310;Laerm;65444;51.438;5.982;2023-07-29T00:57:38;31.06;28.87;33.73;;
67310;Laerm;65444;51.438;5.982;2023-07-29T00:57:50;31.44;29.59;36.53;;
67310;Laerm;65444;51.438;5.982;2023-07-29T00:58:01;31.78;29.31;34.94;;
67310;Laerm;65444;51.438;5.982;2023-07-29T00:58:12;30.46;28.56;36.24;;
67310;Laerm;65444;51.438;5.982;2023-07-29T00:58:23;30.38;28.60;33.24;;
67310;Laerm;65444;51.438;5.982;2023-07-29T00:58:33;30.35;28.38;32.48;;
67310;Laerm;65444;51.438;5.982;2023-07-29T00:58:44;34.58;28.60;48.07;;
67310;Laerm;65444;51.438;5.982;2023-07-29T00:58:54;30.17;28.61;32.16;;
67310;Laerm;65444;51.438;5.982;2023-07-29T00:59:08;32.43;28.58;48.34;;
67310;Laerm;65444;51.438;5.982;2023-07-29T00:59:19;30.15;28.55;31.61;;
67310;Laerm;65444;51.438;5.982;2023-07-29T00:59:30;30.44;28.86;32.71;;
67310;Laerm;65444;51.438;5.982;2023-07-29T00:59:42;30.32;28.46;31.95;;
67310;Laerm;65444;51.438;5.982;2023-07-29T00:59:52;31.17;29.17;37.83;;
67310;Laerm;65444;51.438;5.982;2023-07-29T01:00:03;31.04;29.35;33.99;;
67310;Laerm;65444;51.438;5.982;2023-07-29T01:00:15;36.53;29.00;47.14;;
67310;Laerm;65444;51.438;5.982;2023-07-29T01:00:26;30.46;28.72;32.44;;